Flight Track Log - Related Links

Times and Time Zones

All times are in EDT time to prevent confusion due to time zone crossing. See the N130LH flight status page for this flight to view local times or setup timezone preferences in your user account.

Time Position Orientation Groundspeed Altitude Reporting Facility
EDT Latitude Longitude Course Direction KTS MPH feet Rate Location/Type
Sat 04:25:01 PM 32.8167 -116.9333 121° Southeast 166 191 4,000  Level Southern California TRACON
Sat 04:26:15 PM 32.8006 -116.8683 106° East 160 184 4,000 265 Level Los Angeles Center
Sat 04:27:17 PM 32.7950 -116.8200 98° East 152 175 4,600 578 Climbing Los Angeles Center
Sat 04:28:30 PM 32.7906 -116.7731 96° East 146 168 5,300 750 Climbing Los Angeles Center
Sat 04:29:33 PM 32.7836 -116.7189 99° East 140 161 6,300 788 Climbing Los Angeles Center
Sat 04:30:00 PM -19.8977 -160.1833 121° Southeast  Level Estimated
Sat 04:30:47 PM 32.7792 -116.6744 97° East 138 159 7,100  Level Los Angeles Center
Sat 04:31:49 PM 32.7781 -116.6189 91° East 131 151 8,300 919 Climbing Los Angeles Center
Sat 04:32:51 PM 32.8047 -116.5933 39° Northeast 126 145 9,000 532 Climbing Los Angeles Center
Sat 04:33:53 PM 32.8339 -116.5631 41° Northeast 132 152 9,400 242 Climbing Los Angeles Center
Sat 04:34:55 PM 32.8678 -116.5292 40° Northeast 149 171 9,500 49 Climbing Los Angeles Center
Sat 04:35:56 PM 32.9042 -116.4931 40° Northeast 164 189 9,500 49 Level Los Angeles Center
Sat 04:36:58 PM 32.9392 -116.4561 42° Northeast 164 189 9,600  Climbing Los Angeles Center
Sat 04:38:00 PM 32.9800 -116.4264 31° Northeast 167 192 9,500 -44 Descending Los Angeles Center
Sat 04:39:14 PM 33.0147 -116.3889 42° Northeast 169 194 9,500  Level Los Angeles Center
Sat 04:40:17 PM 33.0583 -116.3436 41° Northeast 171 197 9,500  Level Los Angeles Center
Sat 04:41:18 PM 33.1017 -116.3003 40° Northeast 170 196 9,500  Level Los Angeles Center
Sat 04:42:20 PM 33.1375 -116.2625 41° Northeast 171 197 9,500  Level Los Angeles Center
Sat 04:43:22 PM 33.1744 -116.2236 41° Northeast 173 199 9,500 -97 Level Los Angeles Center
Sat 04:44:24 PM 33.2114 -116.1867 40° Northeast 175 201 9,300 -97 Descending Los Angeles Center
Sat 04:45:26 PM 33.2475 -116.1492 41° Northeast 173 199 9,300  Level Los Angeles Center
Sat 04:46:28 PM 33.2831 -116.1125 41° Northeast 171 197 9,300 97 Level Los Angeles Center
Sat 04:47:30 PM 33.3247 -116.0692 41° Northeast 168 193 9,500 97 Climbing Los Angeles Center
Sat 04:48:32 PM 33.3603 -116.0328 41° Northeast 167 192 9,500  Level Los Angeles Center
Sat 04:49:34 PM 33.3967 -115.9950 41° Northeast 169 194 9,500  Level Los Angeles Center
Sat 04:50:48 PM 33.4325 -115.9575 41° Northeast 171 197 9,500  Level Los Angeles Center
Sat 04:51:50 PM 33.4758 -115.9125 41° Northeast 171 197 9,500  Level Los Angeles Center
Sat 04:52:52 PM 33.5111 -115.8744 42° Northeast 172 198 9,500  Level Los Angeles Center
Sat 04:53:54 PM 33.5550 -115.8297 40° Northeast 172 198 9,500  Level Los Angeles Center
Sat 04:54:56 PM 33.5908 -115.7919 41° Northeast 172 198 9,500  Level Los Angeles Center
Sat 04:55:58 PM 33.6272 -115.7544 41° Northeast 173 199 9,500  Level Los Angeles Center
Sat 04:57:00 PM 33.6633 -115.7164 41° Northeast 173 199 9,500  Level Los Angeles Center
Sat 04:58:02 PM 33.6989 -115.6772 42° Northeast 173 199 9,500  Level Los Angeles Center
Sat 04:59:16 PM 33.7347 -115.6381 42° Northeast 174 200 9,500  Level Los Angeles Center
Sat 05:00:18 PM 33.7850 -115.5831 42° Northeast 175 201 9,500 -48 Level Los Angeles Center
Sat 05:01:20 PM 33.8211 -115.5436 42° Northeast 174 200 9,400  Descending Los Angeles Center
Sat 05:02:22 PM 33.8567 -115.5042 43° Northeast 175 201 9,500 48 Climbing Los Angeles Center
Sat 05:03:24 PM 33.8928 -115.4658 41° Northeast 174 200 9,500  Level Los Angeles Center
Sat 05:04:26 PM 33.9286 -115.4264 42° Northeast 174 200 9,500  Level Los Angeles Center
Sat 05:05:29 PM 33.9647 -115.3861 43° Northeast 175 201 9,500 -48 Level Los Angeles Center
Sat 05:06:30 PM 34.0103 -115.3381 41° Northeast 179 206 9,400  Descending Los Angeles Center
Sat 05:07:32 PM 34.0469 -115.2967 43° Northeast 180 207 9,500  Climbing Los Angeles Center
Sat 05:08:34 PM 34.0833 -115.2572 42° Northeast 178 205 9,400  Descending Los Angeles Center
Sat 05:09:36 PM 34.1194 -115.2164 43° Northeast 178 205 9,500 97 Climbing Los Angeles Center
Sat 05:10:38 PM 34.1561 -115.1778 41° Northeast 176 203 9,600 48 Climbing Los Angeles Center
Sat 05:11:41 PM 34.1917 -115.1394 42° Northeast 174 200 9,600 48 Level Los Angeles Center
Sat 05:12:43 PM 34.2339 -115.0906 44° Northeast 174 200 9,700  Climbing Los Angeles Center
Sat 05:13:45 PM 34.2700 -115.0506 42° Northeast 175 201 9,600 -48 Descending Los Angeles Center
Sat 05:14:47 PM 34.3069 -115.0094 43° Northeast 177 204 9,600 48 Level Los Angeles Center
Sat 05:15:49 PM 34.3428 -114.9700 42° Northeast 177 204 9,700  Climbing Los Angeles Center
Sat 05:16:51 PM 34.3778 -114.9308 43° Northeast 174 200 9,600 -48 Descending Los Angeles Center
Sat 05:17:53 PM 34.4131 -114.8911 43° Northeast 173 199 9,600  Level Los Angeles Center
Sat 05:18:54 PM 34.4475 -114.8536 42° Northeast 170 196 9,600 -48 Level Los Angeles Center
Sat 05:19:57 PM 34.4900 -114.8064 42° Northeast 171 197 9,500 -288 Descending Los Angeles Center
Sat 05:20:59 PM 34.5289 -114.7647 41° Northeast 178 205 9,000 -532 Descending Los Angeles Center
Sat 05:22:01 PM 34.5683 -114.7197 43° Northeast 187 215 8,400 -532 Descending Los Angeles Center
Sat 05:23:03 PM 34.6072 -114.6761 43° Northeast 191 220 7,900 -290 Descending Los Angeles Center
Sat 05:24:05 PM 34.6544 -114.6286 40° Northeast 190 219 7,800 -97 Descending Los Angeles Center
Sat 05:26:00 PM 34.7270 -114.5401 45° Northeast  Level FlightAware Approximate
Sat 05:33:00 PM 34.9958 -114.2209 39° Northeast  Level FlightAware Approximate
Sat 05:34:00 PM 35.0347 -114.1758 44° Northeast  Level FlightAware Approximate
Sat 05:35:00 PM 35.0732 -114.1303 44° Northeast  Level FlightAware Approximate

Login

Don't have an account? Register now (free) for customized features, flight alerts, and more!